createdAt,value
2022-08-01T00:01:23.610Z,73.80
2022-08-01T00:03:55.625Z,74.10
2022-08-01T00:06:28.644Z,73.90
2022-08-01T00:09:00.580Z,74.40
2022-08-01T00:11:32.481Z,74.00
2022-08-01T00:14:05.793Z,73.80
2022-08-01T00:16:38.495Z,73.60
2022-08-01T00:19:10.442Z,73.70
2022-08-01T00:21:52.189Z,73.80
2022-08-01T00:24:24.313Z,74.30
2022-08-01T00:26:56.189Z,74.50
2022-08-01T00:30:11.073Z,74.70
2022-08-01T00:32:20.430Z,74.90
2022-08-01T00:34:52.277Z,75.00
2022-08-01T00:37:24.177Z,75.10
2022-08-01T00:39:56.029Z,75.30
2022-08-01T00:42:28.000Z,75.30
2022-08-01T00:44:59.998Z,75.70
2022-08-01T00:47:32.008Z,75.80
2022-08-01T00:50:05.573Z,76.00
2022-08-01T00:52:40.017Z,76.30
2022-08-01T00:55:15.019Z,76.50
2022-08-01T00:58:02.622Z,76.60
2022-08-01T01:00:52.846Z,76.40
2022-08-01T01:03:56.203Z,76.50
2022-08-01T01:06:59.143Z,76.20
2022-08-01T01:09:33.790Z,76.80
2022-08-01T01:12:29.087Z,76.00
2022-08-01T01:15:17.031Z,76.00
2022-08-01T01:17:57.552Z,76.00
2022-08-01T01:20:34.935Z,76.40
2022-08-01T01:23:45.617Z,76.60
2022-08-01T01:26:50.574Z,76.80
2022-08-01T01:29:27.964Z,76.80
2022-08-01T01:32:10.632Z,76.70
2022-08-01T01:34:46.856Z,76.80
2022-08-01T01:37:24.617Z,76.90
2022-08-01T01:39:57.611Z,76.90
2022-08-01T01:42:31.279Z,77.30
2022-08-01T01:45:07.710Z,77.20
2022-08-01T01:47:40.976Z,77.20
2022-08-01T01:50:14.180Z,76.90
2022-08-01T01:52:48.980Z,77.00
2022-08-01T01:55:24.775Z,77.10
2022-08-01T01:57:58.334Z,77.30
2022-08-01T02:00:32.627Z,77.40
2022-08-01T02:03:06.639Z,77.50
2022-08-01T02:05:40.727Z,77.40
2022-08-01T02:08:15.462Z,77.60
2022-08-01T02:11:06.966Z,77.60
2022-08-01T02:13:41.292Z,77.80
2022-08-01T02:16:13.694Z,77.80
2022-08-01T02:18:45.849Z,78.30
2022-08-01T02:21:24.354Z,78.10
2022-08-01T02:24:09.401Z,78.20
2022-08-01T02:26:47.562Z,78.20
2022-08-01T02:30:06.842Z,78.20
2022-08-01T02:32:47.009Z,78.20
2022-08-01T02:35:28.981Z,78.50
2022-08-01T02:38:04.490Z,78.50
2022-08-01T02:40:39.103Z,78.50
2022-08-01T02:43:13.084Z,78.80
2022-08-01T02:45:48.849Z,78.60
2022-08-01T02:48:22.499Z,78.50
2022-08-01T02:50:56.974Z,78.50
2022-08-01T02:53:39.994Z,78.80
2022-08-01T02:56:18.336Z,78.90
2022-08-01T02:58:52.052Z,79.20
2022-08-01T03:01:27.129Z,79.60
2022-08-01T03:04:01.476Z,79.60
2022-08-01T03:06:34.660Z,79.70
2022-08-01T03:09:07.873Z,79.60
2022-08-01T03:11:42.577Z,79.60
2022-08-01T03:14:15.475Z,79.70
2022-08-01T03:16:48.970Z,79.40
2022-08-01T03:19:23.808Z,79.20
2022-08-01T03:21:59.362Z,79.20
2022-08-01T03:24:33.370Z,79.40
2022-08-01T03:27:06.603Z,79.40
2022-08-01T03:29:40.064Z,79.50
2022-08-01T03:32:14.809Z,79.60
2022-08-01T03:34:47.527Z,79.70
2022-08-01T03:38:13.209Z,79.50
2022-08-01T03:40:41.931Z,79.30
2022-08-01T03:43:20.151Z,79.50
2022-08-01T03:45:54.246Z,79.40
2022-08-01T03:48:33.341Z,79.50
2022-08-01T03:51:06.609Z,79.30
2022-08-01T03:53:42.371Z,79.30
2022-08-01T03:56:20.545Z,79.00
2022-08-01T03:58:52.760Z,78.90
2022-08-01T04:01:25.507Z,78.90
2022-08-01T04:03:59.122Z,79.00
2022-08-01T04:06:31.070Z,79.20
2022-08-01T04:09:03.136Z,79.40
2022-08-01T04:11:36.629Z,79.00
2022-08-01T04:14:09.399Z,78.90
2022-08-01T04:16:41.402Z,78.90
2022-08-01T04:19:13.307Z,79.00
2022-08-01T04:21:45.233Z,79.10
2022-08-01T04:24:20.668Z,78.80
2022-08-01T04:26:53.886Z,78.60
2022-08-01T04:29:27.671Z,78.50
2022-08-01T04:32:01.488Z,78.50
2022-08-01T04:34:35.815Z,78.30
2022-08-01T04:37:13.174Z,78.30
2022-08-01T04:39:50.479Z,78.00
2022-08-01T04:42:25.995Z,77.80
2022-08-01T04:45:05.830Z,77.80
2022-08-01T04:47:38.772Z,77.40
2022-08-01T04:50:12.235Z,77.00
2022-08-01T04:52:44.206Z,76.80
2022-08-01T04:55:18.153Z,76.40
2022-08-01T04:57:50.204Z,76.00
2022-08-01T05:00:22.083Z,75.70
2022-08-01T05:02:53.995Z,75.10
2022-08-01T05:05:27.241Z,74.80
2022-08-01T05:07:59.229Z,74.30
2022-08-01T05:10:31.805Z,74.30
2022-08-01T05:13:03.960Z,73.70
2022-08-01T05:15:37.716Z,73.30
2022-08-01T05:18:09.736Z,73.10
2022-08-01T05:20:42.474Z,72.90
2022-08-01T05:23:42.485Z,72.50
2022-08-01T05:26:06.448Z,72.10
2022-08-01T05:28:38.345Z,71.50
2022-08-01T05:31:10.459Z,71.20
2022-08-01T05:33:42.362Z,70.90
2022-08-01T05:36:14.374Z,70.70
2022-08-01T05:38:46.434Z,70.20
2022-08-01T05:41:18.297Z,69.90
2022-08-01T05:43:50.207Z,69.50
2022-08-01T05:46:22.151Z,69.30
2022-08-01T05:48:59.597Z,69.00
2022-08-01T05:51:32.323Z,68.90
2022-08-01T05:54:05.483Z,68.40
2022-08-01T05:56:37.383Z,68.40
2022-08-01T05:59:09.766Z,67.90
2022-08-01T06:01:41.760Z,66.90
2022-08-01T06:04:16.791Z,67.00
2022-08-01T06:06:48.926Z,66.30
2022-08-01T06:09:20.865Z,65.70
2022-08-01T06:11:52.793Z,65.60
2022-08-01T06:14:24.730Z,64.90
2022-08-01T06:16:56.701Z,64.20
2022-08-01T06:19:28.680Z,64.20
2022-08-01T06:22:00.618Z,63.70
2022-08-01T06:24:32.636Z,63.20
2022-08-01T06:27:04.770Z,62.40
2022-08-01T06:29:57.621Z,62.80
2022-08-01T06:32:30.561Z,62.60
2022-08-01T06:35:02.666Z,62.00
2022-08-01T06:37:34.799Z,61.70
2022-08-01T06:40:13.430Z,61.90
2022-08-01T06:42:48.725Z,61.70
2022-08-01T06:45:23.297Z,63.50
2022-08-01T06:47:55.284Z,65.50
2022-08-01T06:50:27.306Z,66.40
2022-08-01T06:52:59.226Z,67.10
2022-08-01T06:55:31.301Z,67.30
2022-08-01T06:58:03.580Z,67.30
2022-08-01T07:00:35.621Z,66.30
2022-08-01T07:03:08.042Z,67.70
2022-08-01T07:05:39.984Z,67.60
2022-08-01T07:08:16.912Z,68.90
2022-08-01T07:10:53.021Z,69.10
2022-08-01T07:13:25.960Z,69.50
2022-08-01T07:16:17.748Z,69.90
2022-08-01T07:18:49.693Z,68.50
2022-08-01T07:21:38.961Z,68.40
2022-08-01T07:24:15.232Z,67.00
2022-08-01T07:26:54.427Z,67.70
2022-08-01T07:29:27.632Z,68.00
2022-08-01T07:31:59.653Z,66.60
2022-08-01T07:34:31.707Z,66.40
2022-08-01T07:37:03.758Z,64.70
2022-08-01T07:39:35.737Z,64.80
2022-08-01T07:42:08.552Z,65.20
2022-08-01T07:44:41.281Z,65.90
2022-08-01T07:47:13.320Z,65.00
2022-08-01T07:49:45.483Z,66.80
2022-08-01T07:52:17.560Z,66.40
2022-08-01T07:54:52.210Z,67.30
2022-08-01T07:57:25.647Z,67.70
2022-08-01T07:59:57.623Z,67.20
2022-08-01T08:02:29.610Z,66.70
2022-08-01T08:05:02.618Z,66.30
2022-08-01T08:07:34.920Z,65.80
2022-08-01T08:10:07.430Z,66.40
2022-08-01T08:12:41.798Z,66.10
2022-08-01T08:15:15.249Z,66.30
2022-08-01T08:17:50.358Z,64.30
2022-08-01T08:20:28.793Z,65.10
2022-08-01T08:23:00.960Z,64.00
2022-08-01T08:25:34.919Z,63.00
2022-08-01T08:28:07.038Z,62.30
2022-08-01T08:30:39.068Z,62.20
2022-08-01T08:33:13.641Z,63.10
2022-08-01T08:35:53.966Z,62.80
2022-08-01T08:38:29.775Z,61.50
2022-08-01T08:41:02.466Z,63.30
2022-08-01T08:43:36.064Z,64.30
2022-08-01T08:46:09.337Z,63.20
2022-08-01T08:48:42.172Z,62.40
2022-08-01T08:51:15.815Z,62.00
2022-08-01T08:53:48.734Z,63.10
2022-08-01T08:56:21.275Z,62.90
2022-08-01T08:58:54.321Z,63.00
2022-08-01T09:01:26.654Z,63.50
2022-08-01T09:03:58.827Z,62.00
2022-08-01T09:06:32.193Z,63.00
2022-08-01T09:09:04.739Z,62.60
2022-08-01T09:11:37.516Z,62.30
2022-08-01T09:14:26.397Z,62.20
2022-08-01T09:17:09.565Z,62.80
2022-08-01T09:19:42.999Z,61.60
2022-08-01T09:22:19.308Z,61.80
2022-08-01T09:25:10.709Z,62.30
2022-08-01T09:27:44.274Z,61.80
2022-08-01T09:30:23.690Z,62.20
2022-08-01T09:33:01.731Z,62.00
2022-08-01T09:35:43.471Z,60.80
2022-08-01T09:38:20.699Z,60.50
2022-08-01T09:40:59.193Z,61.00
2022-08-01T09:43:32.832Z,60.80
2022-08-01T09:46:12.896Z,60.70
2022-08-01T09:49:02.598Z,61.10
2022-08-01T09:51:59.529Z,60.70
2022-08-01T09:54:34.604Z,61.00
2022-08-01T09:57:15.127Z,61.70
2022-08-01T09:59:58.860Z,61.90
2022-08-01T10:02:35.579Z,62.10
2022-08-01T10:05:10.571Z,61.30
2022-08-01T10:08:07.858Z,61.00
2022-08-01T10:10:40.427Z,61.70
2022-08-01T10:13:13.127Z,60.20
2022-08-01T10:15:46.579Z,59.50
2022-08-01T10:18:26.066Z,59.30
2022-08-01T10:20:59.792Z,59.40
2022-08-01T10:23:40.544Z,60.30
2022-08-01T10:26:15.079Z,59.30
2022-08-01T10:28:49.709Z,58.30
2022-08-01T10:31:30.886Z,58.30
2022-08-01T10:34:03.774Z,59.30
2022-08-01T10:36:40.889Z,60.60
2022-08-01T10:39:13.778Z,59.70
2022-08-01T10:41:49.153Z,58.80
2022-08-01T10:44:25.620Z,58.40
2022-08-01T10:47:12.366Z,58.40
2022-08-01T10:49:54.915Z,58.30
2022-08-01T10:52:26.893Z,59.50
2022-08-01T10:55:12.286Z,60.60
2022-08-01T10:57:52.750Z,60.80
2022-08-01T11:00:25.317Z,62.30
2022-08-01T11:03:04.183Z,61.50
2022-08-01T11:05:37.748Z,60.50
2022-08-01T11:08:21.823Z,61.60
2022-08-01T11:11:02.638Z,62.50
2022-08-01T11:13:59.296Z,62.90
2022-08-01T11:16:37.201Z,63.10
2022-08-01T11:19:09.578Z,63.30
2022-08-01T11:21:59.511Z,63.50
2022-08-01T11:24:50.572Z,61.90
2022-08-01T11:27:26.605Z,62.50
2022-08-01T11:30:13.162Z,62.70
2022-08-01T11:33:11.123Z,62.10
2022-08-01T11:36:12.776Z,62.10
2022-08-01T11:39:00.021Z,62.40
2022-08-01T11:41:37.543Z,62.80
2022-08-01T11:44:34.508Z,62.50
2022-08-01T11:47:13.566Z,60.50
2022-08-01T11:49:56.244Z,59.70
2022-08-01T11:52:30.855Z,59.00
2022-08-01T11:55:03.021Z,59.40
2022-08-01T11:57:36.319Z,59.70
2022-08-01T12:00:15.292Z,59.50
2022-08-01T12:02:59.304Z,59.50
2022-08-01T12:05:35.962Z,59.80
2022-08-01T12:08:07.855Z,59.70
2022-08-01T12:10:50.905Z,61.30
2022-08-01T12:13:23.537Z,61.60
2022-08-01T12:15:56.922Z,61.10
2022-08-01T12:18:29.238Z,60.00
2022-08-01T12:21:05.918Z,59.60
2022-08-01T12:23:37.862Z,60.10
2022-08-01T12:26:25.907Z,61.00
2022-08-01T12:29:01.329Z,61.00
2022-08-01T12:31:37.882Z,60.70
2022-08-01T12:34:30.135Z,59.90
2022-08-01T12:37:03.877Z,59.10
2022-08-01T12:39:40.060Z,59.10
2022-08-01T12:42:14.199Z,59.50
2022-08-01T12:44:50.149Z,59.50
2022-08-01T12:47:23.295Z,59.50
2022-08-01T12:49:55.390Z,58.60
2022-08-01T12:52:28.051Z,60.00
2022-08-01T12:55:06.509Z,59.90
2022-08-01T12:57:50.992Z,59.40
2022-08-01T13:00:25.194Z,58.80
2022-08-01T13:03:07.282Z,59.80
2022-08-01T13:05:51.292Z,60.20
2022-08-01T13:08:24.410Z,59.10
2022-08-01T13:11:09.531Z,59.30
2022-08-01T13:13:50.420Z,59.30
2022-08-01T13:16:31.055Z,59.10
2022-08-01T13:19:11.057Z,59.50
2022-08-01T13:21:56.580Z,58.90
2022-08-01T13:24:30.350Z,58.60
2022-08-01T13:27:05.569Z,57.50
2022-08-01T13:29:43.374Z,57.00
2022-08-01T13:32:28.273Z,56.60
2022-08-01T13:35:07.490Z,56.80
2022-08-01T13:37:43.091Z,57.50
2022-08-01T13:40:25.317Z,57.20
2022-08-01T13:42:57.666Z,57.90
2022-08-01T13:45:29.569Z,56.80
2022-08-01T13:48:11.859Z,58.00
2022-08-01T13:50:53.376Z,58.00
2022-08-01T13:53:33.936Z,57.40
2022-08-01T13:56:05.872Z,57.60
2022-08-01T13:58:37.957Z,57.10
2022-08-01T14:01:09.946Z,57.70
2022-08-01T14:03:42.042Z,56.40
2022-08-01T14:06:16.766Z,57.00
2022-08-01T14:08:48.787Z,57.40
2022-08-01T14:11:21.716Z,57.50
2022-08-01T14:13:53.687Z,57.10
2022-08-01T14:16:25.791Z,57.20
2022-08-01T14:18:57.693Z,57.30
2022-08-01T14:21:29.599Z,57.00
2022-08-01T14:24:01.591Z,56.80
2022-08-01T14:26:33.536Z,57.20
2022-08-01T14:29:11.339Z,57.50
2022-08-01T14:31:43.397Z,56.80
2022-08-01T14:34:15.431Z,57.00
2022-08-01T14:36:47.398Z,56.40
2022-08-01T14:39:21.408Z,56.10
2022-08-01T14:41:54.314Z,56.30
2022-08-01T14:44:28.148Z,56.50
2022-08-01T14:47:16.246Z,55.90
2022-08-01T14:49:56.173Z,55.70
2022-08-01T14:52:28.114Z,55.50
2022-08-01T14:55:00.429Z,56.50
2022-08-01T14:57:32.813Z,56.00
2022-08-01T15:00:07.886Z,56.20
2022-08-01T15:02:40.335Z,56.20
2022-08-01T15:05:12.957Z,55.80
2022-08-01T15:07:52.478Z,56.20
2022-08-01T15:10:26.012Z,56.60
2022-08-01T15:12:59.487Z,55.90
2022-08-01T15:15:31.445Z,55.80
2022-08-01T15:18:06.449Z,55.70
2022-08-01T15:20:38.681Z,55.80
2022-08-01T15:23:11.402Z,56.50
2022-08-01T15:25:43.380Z,56.10
2022-08-01T15:28:15.552Z,56.70
2022-08-01T15:30:47.537Z,56.80
2022-08-01T15:33:19.552Z,56.40
2022-08-01T15:35:52.794Z,56.50
2022-08-01T15:38:25.089Z,55.70
2022-08-01T15:40:57.089Z,55.90
2022-08-01T15:43:29.114Z,55.50
2022-08-01T15:46:01.993Z,55.40
2022-08-01T15:48:39.665Z,55.70
2022-08-01T15:51:12.460Z,55.50
2022-08-01T15:53:45.200Z,55.80
2022-08-01T15:56:17.147Z,55.80
2022-08-01T15:58:49.110Z,55.10
2022-08-01T16:01:22.087Z,54.90
2022-08-01T16:03:55.422Z,54.50
2022-08-01T16:06:27.590Z,55.00
2022-08-01T16:09:00.573Z,55.80
2022-08-01T16:11:32.494Z,55.50
2022-08-01T16:14:05.164Z,55.50
2022-08-01T16:16:37.116Z,55.90
2022-08-01T16:19:09.321Z,54.90
2022-08-01T16:21:51.808Z,55.50
2022-08-01T16:24:23.965Z,55.40
2022-08-01T16:26:56.071Z,55.70
2022-08-01T16:29:30.775Z,55.30
2022-08-01T16:32:15.798Z,56.10
2022-08-01T16:34:55.097Z,56.30
2022-08-01T16:37:27.346Z,55.30
2022-08-01T16:39:59.321Z,55.80
2022-08-01T16:42:31.270Z,55.90
2022-08-01T16:45:08.567Z,56.60
2022-08-01T16:47:46.642Z,56.40
2022-08-01T16:50:18.955Z,56.20
2022-08-01T16:53:00.028Z,56.00
2022-08-01T16:55:49.892Z,56.50
2022-08-01T16:58:27.378Z,56.80
2022-08-01T17:01:52.675Z,56.30
2022-08-01T17:03:59.432Z,56.30
2022-08-01T17:06:33.475Z,56.50
2022-08-01T17:09:05.749Z,57.10
2022-08-01T17:11:38.230Z,57.20
2022-08-01T17:14:10.365Z,56.30
2022-08-01T17:16:42.530Z,57.20
2022-08-01T17:19:14.854Z,57.50
2022-08-01T17:21:46.969Z,58.20
2022-08-01T17:24:18.899Z,57.70
2022-08-01T17:26:50.888Z,59.20
2022-08-01T17:29:24.010Z,57.80
2022-08-01T17:31:56.069Z,58.20
2022-08-01T17:34:28.250Z,58.50
2022-08-01T17:37:01.804Z,58.50
2022-08-01T17:39:37.777Z,58.80
2022-08-01T17:42:12.544Z,58.80
2022-08-01T17:44:49.093Z,59.00
2022-08-01T17:47:48.088Z,59.50
2022-08-01T17:50:15.525Z,60.00
2022-08-01T17:52:47.754Z,60.10
2022-08-01T17:55:55.570Z,60.60
2022-08-01T17:58:15.938Z,60.60
2022-08-01T18:01:07.025Z,60.50
2022-08-01T18:03:41.394Z,60.80
2022-08-01T18:06:17.423Z,60.90
2022-08-01T18:08:49.744Z,60.80
2022-08-01T18:11:27.385Z,60.90
2022-08-01T18:13:59.926Z,61.20
2022-08-01T18:16:32.712Z,61.10
2022-08-01T18:19:06.758Z,61.30
2022-08-01T18:21:42.501Z,61.30
2022-08-01T18:24:17.500Z,61.40
2022-08-01T18:26:51.509Z,61.70
2022-08-01T18:29:47.087Z,62.00
2022-08-01T18:32:15.814Z,62.20
2022-08-01T18:34:47.805Z,61.90
2022-08-01T18:37:19.837Z,62.10
2022-08-01T18:39:53.424Z,62.20
2022-08-01T18:42:26.626Z,62.10
2022-08-01T18:44:58.621Z,62.60
2022-08-01T18:47:30.646Z,62.80
2022-08-01T18:50:02.577Z,63.50
2022-08-01T18:52:34.952Z,63.80
2022-08-01T18:55:08.294Z,64.00
2022-08-01T18:57:42.576Z,64.20
2022-08-01T19:00:15.245Z,64.50
2022-08-01T19:02:47.200Z,65.00
2022-08-01T19:05:19.389Z,65.00
2022-08-01T19:08:06.220Z,65.20
2022-08-01T19:10:40.280Z,65.60
2022-08-01T19:13:12.293Z,65.40
2022-08-01T19:15:44.539Z,65.70
2022-08-01T19:18:17.307Z,65.90
2022-08-01T19:20:49.252Z,65.60
2022-08-01T19:23:39.957Z,65.50
2022-08-01T19:26:13.265Z,65.70
2022-08-01T19:28:47.433Z,65.80
2022-08-01T19:31:24.919Z,66.10
2022-08-01T19:33:57.746Z,66.40
2022-08-01T19:36:29.925Z,66.50
2022-08-01T19:39:01.920Z,66.60
2022-08-01T19:41:35.770Z,66.50
2022-08-01T19:44:11.419Z,66.60
2022-08-01T19:46:44.759Z,66.40
2022-08-01T19:49:18.636Z,66.50
2022-08-01T19:51:59.750Z,66.70
2022-08-01T19:54:36.922Z,67.30
2022-08-01T19:57:12.883Z,67.60
2022-08-01T19:59:46.928Z,67.70
2022-08-01T20:02:22.751Z,67.90
2022-08-01T20:04:54.747Z,68.10
2022-08-01T20:07:28.268Z,68.20
2022-08-01T20:10:00.847Z,68.20
2022-08-01T20:12:34.603Z,68.40
2022-08-01T20:15:07.370Z,68.40
2022-08-01T20:17:39.942Z,68.10
2022-08-01T20:20:12.220Z,68.10
2022-08-01T20:22:45.472Z,68.10
2022-08-01T20:25:20.447Z,68.30
2022-08-01T20:27:53.027Z,68.30
2022-08-01T20:30:25.521Z,68.30
2022-08-01T20:33:00.251Z,68.80
2022-08-01T20:35:52.423Z,69.00
2022-08-01T20:38:27.550Z,69.40
2022-08-01T20:41:03.524Z,69.70
2022-08-01T20:43:37.102Z,69.70
2022-08-01T20:46:09.102Z,70.00
2022-08-01T20:48:42.583Z,70.20
2022-08-01T20:51:15.896Z,70.50
2022-08-01T20:53:49.264Z,70.80
2022-08-01T20:56:42.873Z,70.80
2022-08-01T20:59:55.059Z,70.80
2022-08-01T21:03:01.287Z,71.00
2022-08-01T21:05:55.648Z,71.30
2022-08-01T21:08:40.895Z,71.30
2022-08-01T21:11:17.160Z,71.20
2022-08-01T21:13:50.663Z,71.30
2022-08-01T21:16:29.569Z,71.00
2022-08-01T21:19:19.597Z,70.80
2022-08-01T21:22:10.430Z,71.20
2022-08-01T21:25:11.102Z,71.10
2022-08-01T21:27:44.661Z,71.40
2022-08-01T21:30:17.535Z,71.50
2022-08-01T21:32:49.688Z,72.00
2022-08-01T21:35:24.882Z,72.30
2022-08-01T21:37:59.415Z,72.50
2022-08-01T21:40:33.749Z,72.60
2022-08-01T21:43:07.810Z,73.10
2022-08-01T21:45:57.604Z,73.30
2022-08-01T21:48:32.028Z,73.30
2022-08-01T21:51:28.259Z,73.40
2022-08-01T21:54:36.991Z,73.40
2022-08-01T21:57:30.824Z,73.60
2022-08-01T22:00:12.683Z,73.70
2022-08-01T22:03:28.424Z,73.80
2022-08-01T22:06:03.925Z,73.90
2022-08-01T22:08:39.988Z,73.70
2022-08-01T22:11:14.655Z,73.80
2022-08-01T22:13:46.562Z,74.00
2022-08-01T22:16:19.129Z,74.20
2022-08-01T22:18:52.327Z,74.30
2022-08-01T22:21:27.432Z,74.40
2022-08-01T22:23:59.743Z,74.50
2022-08-01T22:26:37.009Z,74.50
2022-08-01T22:29:09.238Z,74.70
2022-08-01T22:31:41.411Z,74.80
2022-08-01T22:34:17.170Z,74.80
2022-08-01T22:36:52.010Z,74.70
2022-08-01T22:39:26.445Z,74.70
2022-08-01T22:42:02.545Z,74.50
2022-08-01T22:44:52.337Z,74.70
2022-08-01T22:47:55.600Z,74.90
2022-08-01T22:50:37.939Z,75.20
2022-08-01T22:53:45.240Z,75.10
2022-08-01T22:56:17.271Z,74.90
2022-08-01T22:58:49.813Z,74.90
2022-08-01T23:01:24.605Z,74.80
2022-08-01T23:03:59.192Z,74.70
2022-08-01T23:06:42.236Z,74.80
2022-08-01T23:09:14.801Z,75.00
2022-08-01T23:11:47.492Z,75.00
2022-08-01T23:14:21.479Z,75.20
2022-08-01T23:16:54.623Z,75.40
2022-08-01T23:19:27.596Z,75.40
2022-08-01T23:22:04.059Z,75.40
2022-08-01T23:24:36.911Z,75.20
2022-08-01T23:28:03.823Z,75.40
2022-08-01T23:30:20.632Z,75.10
2022-08-01T23:32:53.038Z,74.90
2022-08-01T23:35:26.585Z,74.80
2022-08-01T23:38:02.366Z,74.50
2022-08-01T23:40:35.291Z,74.00
2022-08-01T23:43:16.095Z,74.00
2022-08-01T23:46:04.610Z,74.20
2022-08-01T23:48:38.744Z,74.30
2022-08-01T23:51:17.232Z,73.90
2022-08-01T23:53:56.153Z,73.50
2022-08-01T23:56:28.008Z,73.10
2022-08-01T23:58:59.917Z,72.90
